Time;durP1;ratioP1;P1;durP2;ratioP2;P2;SDS_P1;SDS_P2;PMS_P1;PMS_P2;Temp;Humidity;BMP_temperature;BMP_pressure;BME280_temperature;BME280_humidity;BME280_pressure;Samples;Min_cycle;Max_cycle;Signal;HPM_P1;HPM_P2
2023/10/21 00:02:03;;;;;;;226.25;62.63;;;10.50;99.90;;;;;;6252399;22;20028;-87
2023/10/21 00:04:30;;;;;;;257.77;62.72;;;9.70;99.90;;;;;;6226896;22;20011;-88
2023/10/21 00:06:55;;;;;;;190.07;58.58;;;9.70;99.90;;;;;;6227935;22;20530;-88
2023/10/21 00:09:21;;;;;;;261.67;67.63;;;10.70;99.90;;;;;;6226882;22;20015;-88
2023/10/21 00:11:47;;;;;;;265.35;64.40;;;9.70;99.90;;;;;;6228042;22;20012;-88
2023/10/21 00:14:13;;;;;;;396.88;75.10;;;9.90;99.90;;;;;;6227071;22;20016;-88
2023/10/21 00:16:38;;;;;;;408.83;75.38;;;9.90;99.90;;;;;;6252673;22;20462;-88
2023/10/21 00:19:04;;;;;;;283.85;69.03;;;10.20;99.90;;;;;;6252598;22;20023;-87
2023/10/21 00:21:30;;;;;;;197.60;58.50;;;10.70;99.90;;;;;;6226975;22;20042;-88
2023/10/21 00:23:56;;;;;;;198.48;60.90;;;10.30;99.90;;;;;;6227998;22;20077;-87
2023/10/21 00:26:22;;;;;;;222.55;59.72;;;9.60;99.90;;;;;;6228214;22;20019;-88
2023/10/21 00:28:48;;;;;;;312.60;67.38;;;10.00;99.90;;;;;;6227041;22;20012;-87
2023/10/21 00:31:14;;;;;;;303.67;68.47;;;10.10;99.90;;;;;;6252167;22;20531;-88
2023/10/21 00:33:39;;;;;;;287.13;68.57;;;10.50;99.90;;;;;;6227138;22;20042;-87
2023/10/21 00:36:05;;;;;;;355.88;73.85;;;10.80;99.90;;;;;;6226922;22;20019;-87
2023/10/21 00:38:31;;;;;;;270.55;69.65;;;9.90;99.90;;;;;;6226747;22;20443;-88
2023/10/21 00:40:56;;;;;;;338.67;73.88;;;10.30;99.90;;;;;;6227080;22;20093;-88
2023/10/21 00:43:39;;;;;;;345.58;78.00;;;9.90;99.90;;;;;;6226940;22;20012;-86
2023/10/21 00:46:10;;;;;;;248.57;76.80;;;9.90;99.90;;;;;;6227451;22;20039;-88
2023/10/21 00:48:36;;;;;;;280.80;75.60;;;9.90;99.90;;;;;;6226931;22;20242;-87
2023/10/21 00:51:02;;;;;;;389.98;81.63;;;10.50;99.90;;;;;;6226540;22;20007;-88
2023/10/21 00:53:31;;;;;;;307.95;72.10;;;9.90;99.90;;;;;;6227289;22;20070;-88
2023/10/21 00:55:58;;;;;;;366.20;79.05;;;10.80;99.90;;;;;;6228174;22;20061;-87
2023/10/21 00:58:27;;;;;;;295.15;73.68;;;10.50;99.90;;;;;;6226698;22;20019;-87
2023/10/21 01:00:55;;;;;;;290.02;75.95;;;10.80;99.90;;;;;;6227103;22;20014;-88
2023/10/21 01:03:25;;;;;;;438.73;86.03;;;9.90;99.90;;;;;;6252014;22;20050;-88
2023/10/21 01:05:51;;;;;;;347.77;79.43;;;10.60;99.90;;;;;;6227196;22;20011;-87
2023/10/21 01:08:17;;;;;;;409.25;84.00;;;10.10;99.90;;;;;;6226520;22;20023;-87
2023/10/21 01:10:43;;;;;;;404.85;80.85;;;10.50;99.90;;;;;;6226820;22;20572;-88
2023/10/21 01:13:08;;;;;;;403.15;82.13;;;9.50;99.90;;;;;;6226472;22;20054;-88
2023/10/21 01:15:35;;;;;;;346.50;75.68;;;10.20;99.90;;;;;;6227252;22;20012;-88
2023/10/21 01:18:03;;;;;;;365.23;76.88;;;9.10;99.90;;;;;;6226287;22;20650;-88
2023/10/21 01:20:29;;;;;;;446.38;83.05;;;9.70;99.90;;;;;;6227081;22;20051;-87
2023/10/21 01:22:58;;;;;;;437.13;79.47;;;9.70;99.90;;;;;;6226717;22;20008;-87
2023/10/21 01:25:24;;;;;;;449.58;80.55;;;9.70;99.90;;;;;;6226605;22;20050;-87
2023/10/21 01:27:54;;;;;;;347.75;76.68;;;9.60;99.90;;;;;;6227419;22;20011;-88
2023/10/21 01:30:21;;;;;;;435.52;81.43;;;9.50;99.90;;;;;;6251732;22;20012;-88
2023/10/21 01:32:47;;;;;;;360.77;75.57;;;10.20;99.90;;;;;;6227217;22;20072;-87
2023/10/21 01:35:17;;;;;;;275.45;70.97;;;10.20;99.90;;;;;;6226638;22;20055;-88
2023/10/21 01:37:44;;;;;;;386.90;82.45;;;9.50;99.90;;;;;;6227078;22;20067;-87
2023/10/21 01:40:10;;;;;;;465.33;90.43;;;9.50;99.90;;;;;;6227024;22;20376;-88
2023/10/21 01:42:40;;;;;;;409.80;87.20;;;9.60;99.90;;;;;;6227598;22;20011;-89
2023/10/21 01:45:07;;;;;;;465.83;88.35;;;10.60;99.90;;;;;;6227784;22;20020;-88
2023/10/21 01:47:35;;;;;;;409.80;88.03;;;9.60;99.90;;;;;;6227824;22;20551;-88
2023/10/21 01:50:02;;;;;;;398.50;85.03;;;9.60;99.90;;;;;;6227639;22;20008;-88
2023/10/21 01:52:29;;;;;;;355.45;79.13;;;9.60;99.90;;;;;;6227653;22;20012;-89
2023/10/21 01:54:55;;;;;;;354.00;78.95;;;9.60;99.90;;;;;;6227462;22;20389;-88
2023/10/21 01:57:21;;;;;;;290.55;77.70;;;10.50;99.90;;;;;;6230968;22;20031;-88
2023/10/21 01:59:46;;;;;;;369.88;85.40;;;9.60;99.90;;;;;;6230420;22;20012;-88
2023/10/21 02:02:12;;;;;;;288.08;76.47;;;10.50;99.90;;;;;;6229510;22;20065;-88
2023/10/21 02:04:38;;;;;;;382.25;82.85;;;10.20;99.90;;;;;;6229997;22;20008;-88
2023/10/21 02:07:04;;;;;;;381.25;88.70;;;9.60;99.90;;;;;;6230239;22;20023;-88
2023/10/21 02:09:30;;;;;;;275.90;82.15;;;9.50;99.90;;;;;;6229462;22;20054;-88
2023/10/21 02:11:56;;;;;;;320.30;70.72;;;9.50;99.90;;;;;;6230169;22;20046;-88
2023/10/21 02:14:22;;;;;;;233.93;69.78;;;10.20;99.90;;;;;;6229843;22;20086;-89
2023/10/21 02:16:55;;;;;;;277.85;70.85;;;9.50;99.90;;;;;;6229757;22;20004;-88
2023/10/21 02:19:21;;;;;;;459.87;91.20;;;9.50;99.90;;;;;;6230210;22;20015;-89
2023/10/21 02:21:47;;;;;;;390.98;79.50;;;9.60;99.90;;;;;;6229566;22;20391;-88
2023/10/21 02:24:13;;;;;;;285.30;74.88;;;9.40;99.90;;;;;;6229477;22;20023;-88
2023/10/21 02:26:40;;;;;;;297.30;72.53;;;9.40;99.90;;;;;;6229434;22;20011;-89
2023/10/21 02:29:06;;;;;;;255.50;68.78;;;9.30;99.90;;;;;;6229824;22;20015;-88
2023/10/21 02:31:31;;;;;;;452.50;82.75;;;9.30;99.90;;;;;;6229937;22;20311;-88
2023/10/21 02:33:57;;;;;;;273.30;73.82;;;9.30;99.90;;;;;;6229996;22;20534;-88
2023/10/21 02:36:24;;;;;;;242.45;82.13;;;9.20;99.90;;;;;;6229125;22;20016;-89
2023/10/21 02:38:53;;;;;;;464.55;92.57;;;9.90;99.90;;;;;;6229851;22;20450;-88
2023/10/21 02:41:19;;;;;;;357.50;79.47;;;9.40;99.90;;;;;;6229092;22;20035;-88
2023/10/21 02:43:45;;;;;;;358.42;73.32;;;9.20;99.90;;;;;;6255201;22;20008;-88
2023/10/21 02:46:12;;;;;;;230.18;65.75;;;10.10;99.90;;;;;;6229610;22;20064;-89
2023/10/21 02:48:39;;;;;;;257.30;68.88;;;9.20;99.90;;;;;;6228712;22;20019;-89
2023/10/21 02:51:17;;;;;;;274.58;71.85;;;9.70;99.90;;;;;;6229911;22;20031;-88
2023/10/21 02:53:44;;;;;;;389.30;80.47;;;9.30;99.90;;;;;;6228472;22;20027;-89
2023/10/21 02:56:11;;;;;;;409.08;80.93;;;9.30;99.90;;;;;;6229558;22;20087;-87
2023/10/21 02:58:37;;;;;;;264.35;72.38;;;9.00;99.90;;;;;;6229999;22;20042;-88
2023/10/21 03:01:14;;;;;;;250.10;68.28;;;9.30;99.90;;;;;;6229051;22;20107;-89
2023/10/21 03:03:41;;;;;;;319.52;74.60;;;9.40;99.90;;;;;;6229888;22;20007;-88
2023/10/21 03:06:08;;;;;;;276.25;72.60;;;9.90;99.90;;;;;;6228307;22;20012;-88
2023/10/21 03:08:38;;;;;;;403.77;78.90;;;8.90;99.90;;;;;;6228724;22;20016;-88
2023/10/21 03:11:05;;;;;;;231.35;67.70;;;10.30;99.90;;;;;;6229113;22;20450;-88
2023/10/21 03:13:35;;;;;;;329.25;76.95;;;10.40;99.90;;;;;;6228562;22;20004;-88
2023/10/21 03:16:12;;;;;;;221.45;67.13;;;9.60;99.90;;;;;;6228632;22;20007;-88
2023/10/21 03:18:38;;;;;;;257.75;67.45;;;9.50;99.90;;;;;;6229355;22;20430;-88
2023/10/21 03:21:04;;;;;;;264.40;71.90;;;9.50;99.90;;;;;;6228357;22;20007;-87
2023/10/21 03:23:31;;;;;;;289.95;74.45;;;9.80;99.90;;;;;;6227882;22;20008;-88
2023/10/21 03:26:02;;;;;;;294.35;72.10;;;9.50;99.90;;;;;;6229403;22;20038;-87
2023/10/21 03:28:29;;;;;;;251.10;67.65;;;9.50;99.90;;;;;;6229242;22;20016;-88
2023/10/21 03:31:04;;;;;;;313.38;75.35;;;10.10;99.90;;;;;;6228582;22;20004;-88
2023/10/21 03:33:30;;;;;;;278.25;74.20;;;10.50;99.90;;;;;;6228347;22;20012;-87
2023/10/21 03:36:06;;;;;;;323.85;76.00;;;9.50;99.90;;;;;;6228346;22;20093;-88
2023/10/21 03:38:32;;;;;;;301.85;73.90;;;9.50;99.90;;;;;;6228755;22;20011;-88
2023/10/21 03:41:09;;;;;;;293.80;75.57;;;9.60;99.90;;;;;;6229207;22;20012;-88
2023/10/21 03:43:35;;;;;;;274.73;71.97;;;9.60;99.90;;;;;;6228512;22;20011;-88
2023/10/21 03:46:06;;;;;;;260.92;66.60;;;9.70;99.90;;;;;;6229653;22;20342;-88
2023/10/21 03:48:32;;;;;;;344.75;78.70;;;8.90;99.90;;;;;;6229176;22;20012;-88
2023/10/21 03:51:16;;;;;;;229.93;65.65;;;9.50;99.90;;;;;;6227978;22;20007;-87
2023/10/21 03:53:43;;;;;;;242.25;67.78;;;9.60;99.90;;;;;;6229418;22;20031;-88
2023/10/21 03:56:09;;;;;;;222.15;63.88;;;10.20;99.90;;;;;;6228497;22;20012;-88
2023/10/21 03:58:36;;;;;;;384.42;77.82;;;9.80;99.90;;;;;;6228685;22;20011;-88
2023/10/21 04:01:02;;;;;;;278.88;69.78;;;9.50;99.90;;;;;;6228605;22;20043;-88
2023/10/21 04:03:27;;;;;;;237.65;65.90;;;9.80;99.90;;;;;;6228088;22;20042;-88
2023/10/21 04:05:54;;;;;;;260.48;67.40;;;10.20;99.90;;;;;;6228468;22;20019;-88
2023/10/21 04:08:21;;;;;;;372.05;77.53;;;9.50;99.90;;;;;;6230255;22;20041;-88
2023/10/21 04:10:46;;;;;;;304.30;67.95;;;9.40;99.90;;;;;;6229604;22;20012;-88
2023/10/21 04:13:12;;;;;;;303.67;72.78;;;10.30;99.90;;;;;;6230734;22;20090;-88
2023/10/21 04:15:38;;;;;;;242.85;65.18;;;10.30;99.90;;;;;;6229182;22;20072;-88
2023/10/21 04:18:04;;;;;;;205.82;63.05;;;9.40;99.90;;;;;;6228343;22;20011;-87
2023/10/21 04:20:31;;;;;;;236.73;63.85;;;9.40;99.90;;;;;;6227908;22;20047;-88
2023/10/21 04:22:57;;;;;;;236.75;64.35;;;9.40;99.90;;;;;;6229373;22;20031;-87
2023/10/21 04:25:23;;;;;;;200.07;63.20;;;10.20;99.90;;;;;;6229559;22;20081;-89
2023/10/21 04:27:49;;;;;;;214.02;60.97;;;10.40;99.90;;;;;;6229149;22;20012;-88
2023/10/21 04:30:15;;;;;;;211.20;59.13;;;10.30;99.90;;;;;;6228068;22;20008;-88
2023/10/21 04:32:41;;;;;;;182.27;56.47;;;9.70;99.90;;;;;;6229121;22;20016;-87
2023/10/21 04:35:08;;;;;;;207.77;58.35;;;9.50;99.90;;;;;;6228442;22;20195;-87
2023/10/21 04:37:34;;;;;;;263.50;63.45;;;9.40;99.90;;;;;;6227990;22;20077;-88
2023/10/21 04:40:00;;;;;;;205.70;58.28;;;9.30;99.90;;;;;;6228484;22;20071;-87
2023/10/21 04:42:26;;;;;;;201.23;60.10;;;10.30;99.90;;;;;;6228536;22;20035;-87
2023/10/21 04:44:52;;;;;;;264.38;66.30;;;9.30;99.90;;;;;;6228944;22;20012;-88
2023/10/21 04:47:18;;;;;;;195.80;56.55;;;9.30;99.90;;;;;;6227409;22;20098;-87
2023/10/21 04:49:44;;;;;;;237.35;61.95;;;9.30;99.90;;;;;;6229112;22;20030;-88
2023/10/21 04:52:17;;;;;;;171.43;55.30;;;10.30;99.90;;;;;;6228452;22;20062;-87
2023/10/21 04:54:43;;;;;;;226.67;59.80;;;9.70;99.90;;;;;;6228335;22;20038;-88
2023/10/21 04:57:10;;;;;;;208.48;57.83;;;9.80;99.90;;;;;;6227381;22;20011;-88
2023/10/21 04:59:38;;;;;;;276.02;60.15;;;9.20;99.90;;;;;;6225054;22;20015;-88
2023/10/21 05:02:04;;;;;;;217.60;59.80;;;9.10;99.90;;;;;;6227764;22;20067;-88
2023/10/21 05:04:30;;;;;;;158.57;48.55;;;9.10;99.90;;;;;;6213476;23;20016;-88
2023/10/21 05:06:56;;;;;;;242.40;59.60;;;9.00;99.90;;;;;;6193347;23;20024;-88
2023/10/21 05:09:22;;;;;;;238.45;60.35;;;9.10;99.90;;;;;;6194529;23;20088;-89
2023/10/21 05:11:48;;;;;;;277.55;63.08;;;9.50;99.90;;;;;;6194623;23;20016;-88
2023/10/21 05:14:14;;;;;;;272.95;59.72;;;9.90;99.90;;;;;;6188913;23;20013;-89
2023/10/21 05:16:39;;;;;;;235.85;59.00;;;9.80;99.90;;;;;;6192835;23;20017;-89
2023/10/21 05:19:05;;;;;;;240.88;57.20;;;8.30;99.90;;;;;;6202215;23;20016;-88
2023/10/21 05:21:31;;;;;;;252.55;60.45;;;9.10;99.90;;;;;;6197921;23;20017;-89
2023/10/21 05:23:58;;;;;;;220.48;59.97;;;9.60;99.90;;;;;;6199314;23;20087;-88
2023/10/21 05:26:25;;;;;;;280.63;57.15;;;9.10;99.90;;;;;;6188869;23;20016;-91
2023/10/21 05:28:51;;;;;;;337.50;65.40;;;9.00;99.90;;;;;;6187358;23;20083;-90
2023/10/21 05:31:17;;;;;;;222.82;56.80;;;9.50;99.90;;;;;;6189633;23;20017;-87
2023/10/21 05:33:44;;;;;;;252.40;57.88;;;8.90;99.90;;;;;;6219993;23;20096;-86
2023/10/21 05:36:10;;;;;;;208.85;56.03;;;10.00;99.90;;;;;;6198719;23;20016;-87
2023/10/21 05:38:36;;;;;;;239.85;55.35;;;8.90;99.90;;;;;;6200137;23;20048;-88
2023/10/21 05:41:02;;;;;;;280.88;59.58;;;9.80;99.90;;;;;;6199756;23;20020;-88
2023/10/21 05:43:28;;;;;;;217.73;56.58;;;9.00;99.90;;;;;;6200140;23;20016;-88
2023/10/21 05:45:53;;;;;;;162.05;49.35;;;9.50;99.90;;;;;;6199123;23;20059;-86
2023/10/21 05:48:20;;;;;;;294.48;61.75;;;9.00;99.90;;;;;;6199452;23;20019;-87
2023/10/21 05:50:46;;;;;;;171.10;49.60;;;9.00;99.90;;;;;;6200374;23;20009;-87
2023/10/21 05:53:13;;;;;;;176.40;52.85;;;8.50;99.90;;;;;;6197738;23;20456;-87
2023/10/21 05:55:42;;;;;;;206.73;52.72;;;9.40;99.90;;;;;;6201284;23;20047;-87
2023/10/21 05:58:09;;;;;;;207.95;51.53;;;9.10;99.90;;;;;;6199315;23;20004;-90
2023/10/21 06:00:35;;;;;;;255.52;55.50;;;9.30;99.90;;;;;;6202212;23;20064;-87
2023/10/21 06:03:01;;;;;;;153.73;48.88;;;9.20;99.90;;;;;;6201121;23;20013;-88
2023/10/21 06:05:27;;;;;;;278.88;55.97;;;9.30;99.90;;;;;;6201064;23;20069;-87
2023/10/21 06:07:53;;;;;;;115.55;46.03;;;10.30;99.90;;;;;;6200289;23;20025;-88
2023/10/21 06:10:20;;;;;;;190.40;50.25;;;10.30;99.90;;;;;;6200266;23;20039;-88
2023/10/21 06:12:46;;;;;;;250.07;56.00;;;9.30;99.90;;;;;;6200683;23;20008;-87
2023/10/21 06:15:12;;;;;;;243.10;53.28;;;9.40;99.90;;;;;;6202168;23;20435;-89
2023/10/21 06:17:38;;;;;;;203.60;53.70;;;9.70;99.90;;;;;;6201986;23;20009;-88
2023/10/21 06:20:05;;;;;;;215.38;52.58;;;9.40;99.90;;;;;;6202253;23;20017;-89
2023/10/21 06:22:31;;;;;;;189.48;52.92;;;9.40;99.90;;;;;;6202572;23;20154;-88
2023/10/21 06:24:57;;;;;;;227.60;51.78;;;10.30;99.90;;;;;;6203684;23;20008;-88
2023/10/21 06:27:22;;;;;;;205.40;52.35;;;9.50;99.90;;;;;;6202104;23;20012;-89
2023/10/21 06:29:48;;;;;;;223.90;52.53;;;9.50;99.90;;;;;;6202330;23;20012;-88
2023/10/21 06:32:14;;;;;;;261.48;54.08;;;9.90;99.90;;;;;;6201009;23;20009;-89
2023/10/21 06:34:39;;;;;;;253.85;55.83;;;10.20;99.90;;;;;;6201101;23;20009;-85
2023/10/21 06:37:05;;;;;;;241.52;54.92;;;10.00;99.90;;;;;;6201409;23;20454;-87
2023/10/21 06:39:31;;;;;;;360.35;60.38;;;9.60;99.90;;;;;;6201143;23;20016;-88
2023/10/21 06:41:57;;;;;;;368.67;61.65;;;9.60;99.90;;;;;;6200378;23;20024;-88
2023/10/21 06:44:23;;;;;;;354.60;60.80;;;10.40;99.90;;;;;;6203147;23;20020;-88
2023/10/21 06:46:49;;;;;;;235.07;54.17;;;10.50;99.90;;;;;;6201986;23;20028;-88
2023/10/21 06:49:15;;;;;;;259.05;59.97;;;9.70;99.90;;;;;;6202311;23;20072;-88
2023/10/21 06:51:41;;;;;;;294.67;58.58;;;10.40;99.90;;;;;;6199818;23;20017;-87
2023/10/21 06:54:07;;;;;;;295.95;59.03;;;10.50;99.90;;;;;;6200736;23;20023;-87
2023/10/21 06:56:33;;;;;;;336.38;59.88;;;10.10;99.90;;;;;;6200605;23;20012;-88
2023/10/21 06:59:00;;;;;;;237.82;57.78;;;9.70;99.90;;;;;;6200770;23;20013;-88
2023/10/21 07:01:25;;;;;;;295.20;58.38;;;10.30;99.90;;;;;;6200574;23;20013;-89
2023/10/21 07:03:53;;;;;;;244.27;54.17;;;10.40;99.90;;;;;;6201851;22;20024;-87
2023/10/21 07:06:20;;;;;;;160.80;49.13;;;9.80;99.90;;;;;;6236275;22;20027;-88
2023/10/21 07:08:46;;;;;;;186.98;54.53;;;10.50;99.90;;;;;;6236859;22;20011;-88
2023/10/21 07:11:13;;;;;;;169.70;47.17;;;9.90;99.90;;;;;;6238065;22;20019;-89
2023/10/21 07:13:39;;;;;;;134.15;42.63;;;10.80;99.90;;;;;;6237731;22;20011;-86
2023/10/21 07:16:06;;;;;;;168.05;47.92;;;10.00;99.90;;;;;;6256262;22;20012;-85
2023/10/21 07:18:32;;;;;;;148.15;44.03;;;10.10;99.90;;;;;;6229996;22;20035;-88
2023/10/21 07:20:59;;;;;;;140.32;42.17;;;10.20;99.90;;;;;;6232760;22;20011;-88
2023/10/21 07:23:24;;;;;;;124.10;42.72;;;10.90;99.90;;;;;;6232979;22;20046;-86
2023/10/21 07:25:53;;;;;;;139.38;45.45;;;10.30;99.90;;;;;;6260518;22;20012;-85
2023/10/21 07:28:19;;;;;;;136.07;41.65;;;10.50;99.90;;;;;;6235951;22;20676;-88
2023/10/21 07:30:45;;;;;;;137.90;46.28;;;11.00;99.90;;;;;;6259336;22;20015;-88
2023/10/21 07:33:10;;;;;;;118.10;42.42;;;10.70;99.90;;;;;;6232243;22;20085;-90
2023/10/21 07:35:36;;;;;;;137.98;45.17;;;10.90;99.90;;;;;;6241089;22;20022;-87
2023/10/21 07:38:03;;;;;;;163.13;43.50;;;11.50;99.90;;;;;;6230175;22;20101;-84
2023/10/21 07:40:31;;;;;;;91.47;40.60;;;10.80;99.90;;;;;;6229534;22;20016;-84
2023/10/21 07:42:58;;;;;;;171.63;42.40;;;11.30;99.90;;;;;;6254520;22;20054;-84
2023/10/21 07:45:24;;;;;;;187.27;44.38;;;10.90;99.90;;;;;;6272977;22;20008;-92
2023/10/21 07:47:50;;;;;;;98.28;37.78;;;10.90;99.90;;;;;;6248824;22;20019;-91
2023/10/21 07:50:24;;;;;;;150.10;43.55;;;11.60;99.90;;;;;;6248128;22;20034;-93
2023/10/21 07:52:49;;;;;;;;;;;10.60;99.90;;;;;;6248676;22;20015;-91
2023/10/21 07:55:15;;;;;;;134.77;40.42;;;11.00;99.90;;;;;;6232022;22;19922;-85
2023/10/21 07:57:41;;;;;;;103.60;38.72;;;11.00;99.90;;;;;;6231672;22;20012;-88
2023/10/21 08:00:07;;;;;;;161.63;45.10;;;11.30;99.90;;;;;;6236155;22;20042;-86
2023/10/21 08:02:34;;;;;;;106.78;38.65;;;11.20;99.90;;;;;;6231678;22;20446;-87
2023/10/21 08:05:01;;;;;;;81.32;32.47;;;11.20;99.90;;;;;;6231839;22;20077;-86
2023/10/21 08:07:27;;;;;;;84.78;33.63;;;11.50;99.90;;;;;;6258634;22;20049;-86
2023/10/21 08:09:52;;;;;;;86.78;34.25;;;11.30;99.90;;;;;;6232806;22;20016;-87
2023/10/21 08:12:18;;;;;;;187.90;44.67;;;10.70;99.90;;;;;;6233631;22;20015;-86
2023/10/21 08:14:44;;;;;;;118.57;39.08;;;12.30;99.90;;;;;;6234284;22;20391;-87
2023/10/21 08:17:10;;;;;;;147.80;36.08;;;11.50;99.90;;;;;;6233020;22;20008;-87
2023/10/21 08:19:36;;;;;;;115.57;38.03;;;12.00;99.90;;;;;;6234211;22;20007;-86
2023/10/21 08:22:03;;;;;;;102.05;36.10;;;11.60;99.90;;;;;;6233343;22;20008;-86
2023/10/21 08:24:28;;;;;;;152.90;43.40;;;11.70;99.90;;;;;;6233756;22;20007;-86
2023/10/21 08:26:54;;;;;;;81.13;33.80;;;11.80;99.90;;;;;;6234067;22;20039;-86
2023/10/21 08:29:20;;;;;;;73.07;31.90;;;12.50;99.90;;;;;;6233970;22;20267;-87
2023/10/21 08:31:47;;;;;;;73.80;35.92;;;11.90;99.90;;;;;;6233914;22;20341;-87
2023/10/21 08:34:13;;;;;;;83.90;32.67;;;12.00;99.90;;;;;;6234282;22;20057;-86
2023/10/21 08:36:40;;;;;;;99.13;36.83;;;12.20;99.90;;;;;;6233215;22;20012;-86
2023/10/21 08:39:07;;;;;;;89.00;32.67;;;12.40;99.90;;;;;;6234379;22;20069;-86
2023/10/21 08:41:39;;;;;;;111.05;35.90;;;12.40;99.90;;;;;;6233450;22;20367;-86
2023/10/21 08:44:08;;;;;;;70.40;31.77;;;12.50;99.90;;;;;;6233988;22;20012;-85
2023/10/21 08:46:35;;;;;;;140.25;38.45;;;12.70;99.90;;;;;;6233481;22;20222;-87
2023/10/21 08:49:03;;;;;;;84.72;30.13;;;13.10;99.90;;;;;;6258226;22;20022;-87
2023/10/21 08:51:30;;;;;;;64.13;27.70;;;13.40;99.90;;;;;;6234130;22;20065;-87
2023/10/21 08:54:05;;;;;;;54.15;24.95;;;12.90;99.90;;;;;;6234847;22;20012;-89
2023/10/21 08:56:35;;;;;;;59.35;29.70;;;13.00;99.90;;;;;;6234771;22;20026;-87
2023/10/21 08:59:01;;;;;;;73.55;27.95;;;13.00;99.90;;;;;;6230853;22;20022;-85
2023/10/21 09:01:27;;;;;;;55.95;26.23;;;13.30;99.90;;;;;;6253085;22;20007;-87
2023/10/21 09:03:53;;;;;;;62.53;27.83;;;13.10;99.90;;;;;;6258647;22;20018;-86
2023/10/21 09:06:19;;;;;;;61.83;24.85;;;13.10;99.90;;;;;;6232019;22;20016;-85
2023/10/21 09:08:47;;;;;;;42.05;23.75;;;13.20;99.90;;;;;;6232532;22;20022;-86
2023/10/21 09:11:18;;;;;;;44.70;24.23;;;13.20;99.90;;;;;;6231330;22;20018;-88
2023/10/21 09:13:45;;;;;;;47.83;24.20;;;13.80;99.90;;;;;;6257918;22;20023;-87
2023/10/21 09:16:21;;;;;;;40.42;21.60;;;13.10;99.90;;;;;;6232950;22;20011;-86
2023/10/21 09:19:10;;;;;;;38.08;22.38;;;12.60;99.90;;;;;;6232093;22;20023;-87
2023/10/21 09:21:41;;;;;;;33.55;20.95;;;13.20;99.90;;;;;;6232043;22;20033;-89
2023/10/21 09:24:12;;;;;;;27.73;18.23;;;13.40;99.90;;;;;;6229828;22;20011;-86
2023/10/21 09:26:40;;;;;;;31.52;19.35;;;13.30;99.90;;;;;;6255862;22;20012;-87
2023/10/21 09:29:14;;;;;;;34.67;18.33;;;13.80;99.90;;;;;;6231977;22;20019;-86
2023/10/21 09:31:53;;;;;;;32.10;18.75;;;13.70;99.90;;;;;;6232004;22;20020;-87
2023/10/21 09:34:25;;;;;;;38.40;20.50;;;13.60;99.90;;;;;;6231250;22;20012;-86
2023/10/21 09:36:56;;;;;;;29.42;20.98;;;13.80;99.90;;;;;;6231970;22;20016;-87
2023/10/21 09:39:22;;;;;;;26.08;17.50;;;13.80;99.90;;;;;;6229068;22;20008;-86
2023/10/21 09:41:48;;;;;;;29.77;16.60;;;13.90;99.90;;;;;;6254434;22;20015;-89
2023/10/21 09:44:18;;;;;;;39.22;17.00;;;13.90;99.90;;;;;;6228206;22;20012;-86
2023/10/21 09:46:45;;;;;;;27.67;16.20;;;14.30;99.90;;;;;;6229586;22;20016;-87
2023/10/21 09:49:15;;;;;;;24.45;14.95;;;13.90;99.90;;;;;;6230855;22;20016;-87
2023/10/21 09:52:11;;;;;;;26.05;16.75;;;13.90;99.90;;;;;;6230310;22;20018;-87
2023/10/21 09:54:43;;;;;;;23.25;15.05;;;14.00;99.90;;;;;;6219602;22;20031;-85
2023/10/21 09:57:11;;;;;;;22.10;13.32;;;14.10;99.90;;;;;;6229737;22;20020;-86
2023/10/21 09:59:40;;;;;;;21.52;11.82;;;14.10;99.90;;;;;;6256730;22;20019;-86
2023/10/21 10:02:07;;;;;;;22.08;12.68;;;14.20;99.90;;;;;;6229369;22;20015;-86
2023/10/21 10:04:35;;;;;;;19.17;12.63;;;14.20;99.90;;;;;;6230743;22;20020;-85
2023/10/21 10:07:08;;;;;;;22.30;11.02;;;14.00;99.90;;;;;;6231548;22;20026;-86
2023/10/21 10:09:39;;;;;;;20.63;11.65;;;14.00;99.90;;;;;;6228787;22;20015;-87
2023/10/21 10:12:29;;;;;;;19.95;11.88;;;14.50;99.90;;;;;;6244894;22;20012;-87
2023/10/21 10:14:54;;;;;;;20.50;9.90;;;14.20;99.90;;;;;;6245046;22;20039;-86
2023/10/21 10:17:48;;;;;;;13.80;9.95;;;14.10;99.90;;;;;;6245395;22;20674;-87
2023/10/21 10:20:19;;;;;;;16.38;8.82;;;13.80;99.90;;;;;;6220230;22;20039;-87
2023/10/21 10:22:49;;;;;;;17.52;8.73;;;13.80;99.90;;;;;;6219686;22;20385;-86
2023/10/21 10:25:24;;;;;;;17.88;10.45;;;13.80;99.90;;;;;;6220595;22;20012;-86
2023/10/21 10:28:17;;;;;;;15.27;8.18;;;13.70;99.90;;;;;;6245702;22;20081;-86
2023/10/21 10:30:44;;;;;;;14.98;8.82;;;13.70;99.90;;;;;;6246290;22;20016;-87
2023/10/21 10:33:15;;;;;;;11.82;8.40;;;13.70;99.90;;;;;;6220881;22;20034;-86
2023/10/21 10:35:47;;;;;;;11.40;8.02;;;13.70;99.90;;;;;;6271459;22;20023;-87
2023/10/21 10:38:17;;;;;;;13.25;8.82;;;13.80;99.90;;;;;;6220497;22;20030;-87
2023/10/21 10:40:44;;;;;;;8.38;7.10;;;14.10;99.90;;;;;;6221508;22;20023;-87
2023/10/21 10:43:11;;;;;;;7.07;6.22;;;13.80;99.90;;;;;;6246095;22;20015;-86
2023/10/21 10:45:40;;;;;;;7.88;6.75;;;13.80;99.90;;;;;;6220234;22;20079;-86
2023/10/21 10:48:07;;;;;;;7.68;5.22;;;14.30;99.90;;;;;;6220913;22;20094;-86
2023/10/21 10:50:37;;;;;;;12.90;9.05;;;14.00;99.90;;;;;;6220943;22;20019;-86
2023/10/21 10:53:15;;;;;;;8.98;6.13;;;13.90;99.90;;;;;;6220075;22;20370;-87
2023/10/21 10:55:49;;;;;;;6.22;5.50;;;13.90;99.90;;;;;;6220977;22;20062;-87
2023/10/21 10:58:18;;;;;;;9.35;7.53;;;14.00;99.90;;;;;;6246365;22;20154;-87
2023/10/21 11:00:45;;;;;;;5.97;5.30;;;14.10;99.90;;;;;;6221308;22;20012;-86
2023/10/21 11:03:21;;;;;;;5.68;5.00;;;14.30;99.90;;;;;;6220826;22;20015;-87
2023/10/21 11:05:48;;;;;;;7.82;5.15;;;14.20;99.90;;;;;;6244701;22;20052;-87
2023/10/21 11:08:15;;;;;;;8.90;7.68;;;13.90;99.90;;;;;;6220221;22;20039;-87
2023/10/21 11:10:41;;;;;;;6.50;4.85;;;13.80;99.90;;;;;;6221861;22;20008;-87
2023/10/21 11:13:07;;;;;;;5.97;4.15;;;13.80;99.90;;;;;;6245669;22;20012;-86
2023/10/21 11:15:54;;;;;;;6.25;3.70;;;13.70;99.90;;;;;;6220682;22;20021;-87
2023/10/21 11:18:21;;;;;;;5.78;5.18;;;13.90;99.90;;;;;;6271901;22;20034;-87
2023/10/21 11:20:50;;;;;;;6.75;6.03;;;14.10;99.90;;;;;;6221093;22;20011;-88
2023/10/21 11:23:18;;;;;;;13.02;6.68;;;13.90;99.90;;;;;;6221849;22;20007;-87
2023/10/21 11:25:50;;;;;;;7.32;5.18;;;13.90;99.90;;;;;;6221550;22;20046;-87
2023/10/21 11:28:16;;;;;;;6.43;4.72;;;14.30;99.90;;;;;;6221730;22;20020;-88
2023/10/21 11:30:44;;;;;;;6.28;4.10;;;14.20;99.90;;;;;;6221673;22;20019;-87
2023/10/21 11:33:10;;;;;;;5.15;4.43;;;14.40;99.90;;;;;;6220313;22;20011;-88
2023/10/21 11:35:41;;;;;;;6.03;5.53;;;14.70;99.90;;;;;;6222071;22;20465;-88
2023/10/21 11:38:07;;;;;;;7.72;6.68;;;14.50;99.90;;;;;;6247211;22;20022;-86
2023/10/21 11:40:36;;;;;;;6.60;6.03;;;14.30;99.90;;;;;;6220795;22;20016;-86
2023/10/21 11:43:07;;;;;;;6.55;3.88;;;14.20;99.90;;;;;;6220285;22;20315;-86
2023/10/21 11:45:32;;;;;;;7.80;6.78;;;14.30;99.90;;;;;;6220693;22;20342;-85
2023/10/21 11:47:59;;;;;;;5.57;4.55;;;14.20;99.90;;;;;;6244692;22;20015;-85
2023/10/21 11:50:33;;;;;;;7.97;5.63;;;14.40;99.90;;;;;;6218672;22;20062;-85
2023/10/21 11:53:06;;;;;;;6.28;5.72;;;14.40;99.90;;;;;;6219147;22;20018;-85
2023/10/21 12:04:29;;;;;;;5.93;5.30;;;14.20;99.90;;;;;;6244603;22;20342;-86
2023/10/21 12:15:19;;;;;;;13.35;12.48;;;13.70;99.90;;;;;;6210407;23;20020;-88
2023/10/21 12:31:54;;;;;;;9.77;8.98;;;13.90;99.90;;;;;;6209483;23;20481;-87
2023/10/21 12:38:56;;;;;;;6.40;5.72;;;14.00;99.90;;;;;;6208618;23;20024;-87
2023/10/21 12:41:26;;;;;;;6.20;4.50;;;14.20;99.90;;;;;;6184387;23;20035;-87
2023/10/21 12:43:55;;;;;;;5.70;5.18;;;14.50;99.90;;;;;;6209393;23;20024;-87
2023/10/21 12:46:30;;;;;;;10.90;10.10;;;14.40;99.90;;;;;;6184335;23;20423;-87
2023/10/21 12:48:57;;;;;;;7.10;4.78;;;14.40;99.90;;;;;;6208109;23;20020;-86
2023/10/21 12:51:26;;;;;;;5.65;4.95;;;14.40;99.90;;;;;;6183733;23;20009;-86
2023/10/21 12:53:51;;;;;;;11.23;10.50;;;14.40;99.90;;;;;;6185230;23;20074;-87
2023/10/21 12:56:18;;;;;;;10.10;9.18;;;14.30;99.90;;;;;;6184666;23;20448;-88
2023/10/21 12:58:44;;;;;;;11.00;10.23;;;14.50;99.90;;;;;;6183406;23;20039;-87
2023/10/21 13:01:12;;;;;;;11.75;10.25;;;14.20;99.90;;;;;;6184796;23;20011;-88
2023/10/21 13:03:39;;;;;;;11.88;11.02;;;14.20;99.90;;;;;;6184608;23;20008;-87
2023/10/21 13:06:08;;;;;;;9.18;8.48;;;14.30;99.90;;;;;;6184271;23;20055;-86
2023/10/21 13:08:34;;;;;;;9.52;8.57;;;14.20;99.90;;;;;;6184457;23;20012;-87